Terminal Aerodrome Forecast
Issued by NWS

Current Version | Previous Version | Text Only | Print | Product List | Glossary On
Versions: 1 2 3 4 5 6 7 8 9 10 11 12
027
FTUS43 KJKL 231138
TAFSJS
TAF
KSJS 231138Z 2312/2412 13010KT P6SM VCSH OVC080
     FM231400 12010G21KT 6SM -SHRA SCT050 OVC070
     FM240600 10005KT P6SM BKN070=

USA.gov is the U.S. government's official web portal to all federal, state and local government web resources and services.